Time;durP1;ratioP1;P1;durP2;ratioP2;P2;SDS_P1;SDS_P2;PMS_P1;PMS_P2;Temp;Humidity;BMP_temperature;BMP_pressure;BME280_temperature;BME280_humidity;BME280_pressure;Samples;Min_cycle;Max_cycle;Signal;HPM_P1;HPM_P2
2022/11/15 00:01:30;;;;;;;34.17;27.90;;;9.10;99.90;;;;;;4954263;28;20554;-74
2022/11/15 00:04:15;;;;;;;30.95;26.60;;;9.20;99.90;;;;;;4981169;28;20061;-75
2022/11/15 00:07:00;;;;;;;29.73;26.10;;;9.20;99.90;;;;;;4981014;28;20054;-75
2022/11/15 00:09:46;;;;;;;;;;;9.20;99.90;;;;;;4963584;28;20554;-74
2022/11/15 00:12:31;;;;;;;31.70;26.65;;;9.20;99.90;;;;;;4963942;28;19929;-74
2022/11/15 00:15:17;;;;;;;30.45;25.02;;;9.20;99.90;;;;;;4980932;28;20833;-74
2022/11/15 00:18:03;;;;;;;;;;;9.20;99.90;;;;;;4959163;28;20069;-75
2022/11/15 00:20:48;;;;;;;31.55;25.63;;;9.20;99.90;;;;;;4947434;28;19976;-75
2022/11/15 00:23:33;;;;;;;31.60;26.65;;;9.20;99.90;;;;;;4977671;28;20062;-74
2022/11/15 00:26:19;;;;;;;35.10;27.02;;;9.20;99.90;;;;;;4980526;28;20144;-75
2022/11/15 00:29:04;;;;;;;;;;;9.30;99.90;;;;;;4955456;28;20512;-74
2022/11/15 00:31:49;;;;;;;34.38;27.10;;;9.30;99.90;;;;;;4967576;28;19973;-74
2022/11/15 00:34:34;;;;;;;;;;;9.30;99.90;;;;;;4958479;28;20050;-74
2022/11/15 00:37:20;;;;;;;36.58;27.30;;;9.30;99.90;;;;;;4952797;28;19930;-75
2022/11/15 00:40:06;;;;;;;34.55;28.02;;;9.30;99.90;;;;;;4959827;28;20057;-75
2022/11/15 00:42:51;;;;;;;35.38;28.65;;;9.30;99.90;;;;;;4958494;28;20057;-75
2022/11/15 00:45:36;;;;;;;43.67;28.67;;;9.40;99.90;;;;;;4976210;28;20101;-74
2022/11/15 00:48:22;;;;;;;42.95;28.75;;;9.40;99.90;;;;;;4977354;28;20452;-75
2022/11/15 00:51:07;;;;;;;40.58;29.10;;;9.50;99.90;;;;;;4954490;28;20052;-75
2022/11/15 00:53:52;;;;;;;37.08;29.10;;;9.40;99.90;;;;;;4948097;28;20043;-74
2022/11/15 00:56:38;;;;;;;41.35;30.45;;;9.40;99.90;;;;;;4960077;28;20049;-75
2022/11/15 00:59:23;;;;;;;38.63;28.88;;;9.40;99.90;;;;;;4962275;28;20164;-75
2022/11/15 01:02:09;;;;;;;40.13;29.88;;;9.40;99.90;;;;;;4962287;28;20558;-75
2022/11/15 01:04:54;;;;;;;41.00;29.40;;;9.40;99.90;;;;;;4964508;28;20058;-75
2022/11/15 01:07:40;;;;;;;42.25;30.08;;;9.40;99.90;;;;;;4949355;28;20089;-74
2022/11/15 01:10:25;;;;;;;40.50;32.08;;;9.30;99.90;;;;;;4957428;28;20057;-75
2022/11/15 01:13:11;;;;;;;41.92;31.00;;;9.40;99.90;;;;;;4960952;28;20057;-75
2022/11/15 01:15:57;;;;;;;42.45;31.27;;;9.40;99.90;;;;;;4952251;28;20046;-75
2022/11/15 01:18:42;;;;;;;;;;;9.40;99.90;;;;;;4949274;28;20105;-75
2022/11/15 01:21:27;;;;;;;39.60;31.15;;;9.40;99.90;;;;;;4946561;28;20431;-75
2022/11/15 01:24:13;;;;;;;;;;;9.50;99.90;;;;;;4947826;28;20058;-75
2022/11/15 01:26:58;;;;;;;38.95;29.67;;;9.50;99.90;;;;;;4968313;28;20435;-75
2022/11/15 01:29:43;;;;;;;39.33;29.33;;;9.40;99.90;;;;;;4959604;28;20521;-75
2022/11/15 01:32:29;;;;;;;46.03;31.58;;;9.40;99.90;;;;;;4951532;28;20058;-75
2022/11/15 01:35:15;;;;;;;39.15;30.02;;;9.40;99.90;;;;;;4959015;28;20053;-74
2022/11/15 01:38:00;;;;;;;;;;;9.40;99.90;;;;;;4962515;28;20114;-75
2022/11/15 01:40:45;;;;;;;48.70;31.77;;;9.30;99.90;;;;;;4963841;28;19997;-75
2022/11/15 01:43:32;;;;;;;;;;;9.30;99.90;;;;;;4972158;28;20052;-75
2022/11/15 01:46:34;;;;;;;48.50;30.77;;;9.20;99.90;;;;;;4952350;28;19936;-75
2022/11/15 01:49:22;;;;;;;51.92;32.60;;;9.30;99.90;;;;;;4960178;28;20100;-75
2022/11/15 01:52:13;;;;;;;45.42;34.17;;;9.20;99.90;;;;;;4944331;28;20074;-75
2022/11/15 01:55:18;;;;;;;49.05;34.05;;;9.20;99.90;;;;;;4955366;28;20053;-75
2022/11/15 01:58:05;;;;;;;53.67;34.08;;;9.20;99.90;;;;;;4960645;28;20572;-74
2022/11/15 02:00:51;;;;;;;54.20;33.08;;;9.10;99.90;;;;;;4978274;28;20066;-75
2022/11/15 02:03:54;;;;;;;53.97;34.92;;;9.10;99.90;;;;;;4966828;28;20048;-75
2022/11/15 02:06:40;;;;;;;46.78;33.58;;;9.10;99.90;;;;;;4965293;28;20700;-75
2022/11/15 02:09:25;;;;;;;58.15;34.78;;;9.20;99.90;;;;;;4978355;28;20104;-75
2022/11/15 02:12:14;;;;;;;60.45;35.47;;;9.10;99.90;;;;;;4976024;28;20728;-75
2022/11/15 02:15:00;;;;;;;58.53;35.70;;;9.00;99.90;;;;;;4959547;28;20073;-75
2022/11/15 02:18:00;;;;;;;52.40;34.42;;;9.00;99.90;;;;;;4972366;28;21011;-75
2022/11/15 02:20:52;;;;;;;54.25;35.97;;;8.90;99.90;;;;;;4945551;28;20264;-75
2022/11/15 02:23:48;;;;;;;57.67;37.35;;;8.90;99.90;;;;;;4956713;28;20062;-75
2022/11/15 02:27:05;;;;;;;58.58;37.00;;;9.00;99.90;;;;;;4970627;28;20580;-75
2022/11/15 02:30:28;;;;;;;58.13;37.58;;;8.90;99.90;;;;;;4949288;28;20051;-75
2022/11/15 02:33:43;;;;;;;57.13;36.42;;;8.80;99.90;;;;;;4950373;28;20057;-75
2022/11/15 02:36:53;;;;;;;54.75;33.45;;;8.80;99.90;;;;;;4941934;28;20093;-75
2022/11/15 02:39:44;;;;;;;52.70;33.00;;;8.90;99.90;;;;;;4963735;28;20189;-75
2022/11/15 02:45:53;;;;;;;49.13;31.20;;;8.90;99.90;;;;;;4967260;28;20103;-75
2022/11/15 02:48:39;;;;;;;49.75;31.33;;;9.00;99.90;;;;;;4951153;28;20048;-75
2022/11/15 02:51:24;;;;;;;43.70;28.85;;;9.00;99.90;;;;;;4964430;28;20169;-74
2022/11/15 02:54:33;;;;;;;;;;;9.10;99.90;;;;;;4952263;28;20573;-75
2022/11/15 02:57:22;;;;;;;47.60;29.95;;;9.10;99.90;;;;;;4978669;28;20410;-75
2022/11/15 03:00:14;;;;;;;42.92;29.58;;;9.10;99.90;;;;;;4939855;28;20125;-75
2022/11/15 03:03:28;;;;;;;40.80;27.92;;;9.10;99.90;;;;;;4952055;28;20043;-75
2022/11/15 03:06:39;;;;;;;42.20;27.98;;;9.10;99.90;;;;;;4960939;28;20039;-75
2022/11/15 03:09:30;;;;;;;40.55;28.25;;;9.10;99.90;;;;;;4960051;28;20133;-76
2022/11/15 03:12:38;;;;;;;38.67;28.95;;;9.10;99.90;;;;;;4951369;28;20057;-75
2022/11/15 03:15:36;;;;;;;38.42;28.83;;;9.10;99.90;;;;;;4951951;28;20097;-76
2022/11/15 03:18:35;;;;;;;42.28;28.75;;;9.10;99.90;;;;;;4952205;28;20121;-75
2022/11/15 03:21:24;;;;;;;40.10;29.58;;;9.10;99.90;;;;;;4974086;28;20574;-75
2022/11/15 03:24:12;;;;;;;53.85;30.75;;;9.10;99.90;;;;;;4950628;28;20127;-75
2022/11/15 03:27:00;;;;;;;39.40;28.25;;;9.10;99.90;;;;;;4958346;28;20066;-75
2022/11/15 03:29:51;;;;;;;39.53;27.13;;;9.10;99.90;;;;;;4963442;28;20185;-75
2022/11/15 03:32:49;;;;;;;40.42;26.60;;;9.20;99.90;;;;;;4955348;28;20050;-75
2022/11/15 03:35:40;;;;;;;40.38;27.13;;;9.20;99.90;;;;;;4977015;28;20042;-75
2022/11/15 03:38:29;;;;;;;43.97;27.67;;;9.30;99.90;;;;;;4954149;28;20104;-75
2022/11/15 03:41:26;;;;;;;32.97;26.02;;;9.30;99.90;;;;;;4974299;28;20072;-75
2022/11/15 03:44:34;;;;;;;34.17;25.75;;;9.40;99.90;;;;;;4954870;28;20066;-75
2022/11/15 03:47:39;;;;;;;31.80;26.80;;;9.40;99.90;;;;;;4955889;28;20054;-75
2022/11/15 03:50:26;;;;;;;37.63;26.60;;;9.40;99.90;;;;;;4959811;28;20041;-75
2022/11/15 03:53:13;;;;;;;36.58;25.38;;;9.40;99.90;;;;;;4955627;28;20053;-75
2022/11/15 03:55:58;;;;;;;34.45;26.05;;;9.30;99.90;;;;;;4963117;28;20061;-75
2022/11/15 03:58:43;;;;;;;34.03;24.33;;;9.30;99.90;;;;;;4954461;28;20045;-75
2022/11/15 04:01:29;;;;;;;36.88;24.98;;;9.30;99.90;;;;;;4953529;28;20058;-75
2022/11/15 04:04:14;;;;;;;38.97;26.08;;;9.30;99.90;;;;;;4960974;28;20358;-75
2022/11/15 04:06:59;;;;;;;33.38;25.20;;;9.30;99.90;;;;;;4951519;28;20176;-74
2022/11/15 04:10:03;;;;;;;;;;;9.30;99.90;;;;;;4958289;28;20064;-77
2022/11/15 04:12:48;;;;;;;30.65;22.73;;;9.30;99.90;;;;;;4968780;28;19965;-74
2022/11/15 04:15:34;;;;;;;26.75;20.85;;;9.40;99.90;;;;;;4960678;28;20066;-75
2022/11/15 04:18:19;;;;;;;32.90;22.45;;;9.40;99.90;;;;;;4951127;28;20428;-74
2022/11/15 04:24:12;;;;;;;27.55;21.63;;;9.50;99.90;;;;;;4966752;28;19929;-75
2022/11/15 04:26:58;;;;;;;33.88;21.52;;;9.50;99.90;;;;;;4973683;28;20041;-74
2022/11/15 04:29:43;;;;;;;;;;;9.50;99.90;;;;;;4969432;28;20073;-75
2022/11/15 04:32:28;;;;;;;27.40;21.20;;;9.50;99.90;;;;;;4953309;28;20290;-75
2022/11/15 04:35:14;;;;;;;27.27;21.85;;;9.60;99.90;;;;;;4974921;28;20198;-75
2022/11/15 04:38:00;;;;;;;;;;;9.70;99.90;;;;;;4958927;28;20057;-74
2022/11/15 04:40:46;;;;;;;31.50;23.98;;;9.70;99.90;;;;;;4973112;28;20671;-75
2022/11/15 04:43:32;;;;;;;29.23;22.60;;;9.80;99.90;;;;;;4974451;28;20507;-74
2022/11/15 04:46:18;;;;;;;32.33;24.67;;;9.90;99.90;;;;;;4978235;28;20404;-74
2022/11/15 04:49:03;;;;;;;;;;;10.00;99.90;;;;;;4969123;28;20058;-75
2022/11/15 04:51:49;;;;;;;33.03;24.03;;;10.00;99.90;;;;;;4968823;28;20024;-74
2022/11/15 04:54:34;;;;;;;;;;;10.10;99.90;;;;;;4967075;28;20042;-75
2022/11/15 04:57:19;;;;;;;36.63;26.52;;;10.20;99.90;;;;;;4982959;28;20048;-74
2022/11/15 05:00:07;;;;;;;34.00;26.52;;;10.20;99.90;;;;;;4977783;28;20049;-75
2022/11/15 05:05:58;;;;;;;36.55;28.52;;;10.30;99.90;;;;;;4974340;28;20060;-75
2022/11/15 05:08:44;;;;;;;31.63;26.55;;;10.40;99.90;;;;;;4955118;28;20616;-75
2022/11/15 05:11:29;;;;;;;35.17;28.73;;;10.50;99.90;;;;;;4959064;28;20408;-74
2022/11/15 05:14:15;;;;;;;;;;;10.50;99.90;;;;;;4951768;28;20100;-75
2022/11/15 05:17:00;;;;;;;32.72;27.40;;;10.60;99.90;;;;;;4959224;28;20355;-74
2022/11/15 05:19:45;;;;;;;;;;;10.60;99.90;;;;;;4966864;28;20100;-75
2022/11/15 05:22:31;;;;;;;30.67;27.23;;;10.50;99.90;;;;;;4951526;28;19926;-75
2022/11/15 05:25:16;;;;;;;32.22;27.10;;;10.50;99.90;;;;;;4981034;28;20047;-76
2022/11/15 05:28:02;;;;;;;30.67;27.50;;;10.50;99.90;;;;;;4978897;28;20054;-75
2022/11/15 05:30:47;;;;;;;33.33;29.77;;;10.50;99.90;;;;;;4943978;28;20077;-76
2022/11/15 05:33:34;;;;;;;32.38;28.98;;;10.40;99.90;;;;;;4962504;28;20054;-75
2022/11/15 05:36:32;;;;;;;33.47;29.63;;;10.50;99.90;;;;;;4967437;28;20162;-76
2022/11/15 05:39:17;;;;;;;31.23;28.02;;;10.50;99.90;;;;;;4980401;28;20069;-75
2022/11/15 05:42:10;;;;;;;32.90;27.85;;;10.50;99.90;;;;;;4972015;28;20047;-75
2022/11/15 05:44:57;;;;;;;31.40;28.10;;;10.50;99.90;;;;;;4968071;28;20053;-75
2022/11/15 05:47:43;;;;;;;34.95;28.10;;;10.50;99.90;;;;;;4961404;28;20046;-76
2022/11/15 05:50:28;;;;;;;30.33;27.23;;;10.50;99.90;;;;;;4951155;28;20198;-76
2022/11/15 05:53:18;;;;;;;30.40;27.25;;;10.50;99.90;;;;;;4962859;28;20051;-76
2022/11/15 05:56:06;;;;;;;29.42;26.65;;;10.40;99.90;;;;;;4975361;28;20129;-76
2022/11/15 05:58:54;;;;;;;29.08;26.08;;;10.40;99.90;;;;;;4971327;28;20108;-76
2022/11/15 06:01:44;;;;;;;27.80;25.05;;;10.40;99.90;;;;;;4969203;28;20713;-76
2022/11/15 06:04:29;;;;;;;;;;;10.40;99.90;;;;;;4945543;28;20134;-75
2022/11/15 06:07:14;;;;;;;27.65;25.25;;;10.40;99.90;;;;;;4966080;28;19930;-75
2022/11/15 06:09:59;;;;;;;;;;;10.50;99.90;;;;;;4964133;28;20053;-76
2022/11/15 06:12:45;;;;;;;27.90;25.30;;;10.50;99.90;;;;;;4972296;28;19936;-76
2022/11/15 06:15:31;;;;;;;28.50;25.45;;;10.50;99.90;;;;;;4969846;28;20111;-75
2022/11/15 06:18:17;;;;;;;27.80;25.30;;;10.40;99.90;;;;;;4965260;28;20140;-76
2022/11/15 06:21:03;;;;;;;28.27;25.77;;;10.40;99.90;;;;;;4965653;28;20038;-76
2022/11/15 06:23:48;;;;;;;27.83;24.98;;;10.40;99.90;;;;;;4969015;28;20109;-75
2022/11/15 06:26:33;;;;;;;27.77;24.88;;;10.30;99.90;;;;;;4944590;28;20733;-76
2022/11/15 06:29:19;;;;;;;27.23;24.42;;;10.20;99.90;;;;;;4947120;28;20046;-76
2022/11/15 06:32:04;;;;;;;;;;;10.20;99.90;;;;;;4970567;28;20045;-75
2022/11/15 06:34:49;;;;;;;26.23;23.53;;;10.10;99.90;;;;;;4969685;28;20028;-75
2022/11/15 06:37:35;;;;;;;26.52;23.73;;;10.00;99.90;;;;;;4966650;28;20360;-75
2022/11/15 06:40:20;;;;;;;24.92;22.02;;;9.90;99.90;;;;;;4961193;28;20039;-76
2022/11/15 06:43:07;;;;;;;24.70;22.33;;;9.90;99.90;;;;;;4970977;28;20522;-76
2022/11/15 06:45:52;;;;;;;24.77;22.30;;;9.90;99.90;;;;;;4962913;28;20050;-75
2022/11/15 06:48:37;;;;;;;24.08;21.67;;;9.90;99.90;;;;;;4946941;28;20110;-76
2022/11/15 06:51:22;;;;;;;;;;;9.80;99.90;;;;;;4967252;28;20053;-75
2022/11/15 06:54:08;;;;;;;23.13;20.75;;;9.80;99.90;;;;;;4969963;28;19929;-76
2022/11/15 06:56:53;;;;;;;22.30;20.30;;;9.80;99.90;;;;;;4957829;28;20077;-75
2022/11/15 06:59:38;;;;;;;25.02;22.48;;;9.80;99.90;;;;;;4952217;28;20192;-75
2022/11/15 07:02:25;;;;;;;22.80;20.60;;;9.90;99.90;;;;;;4949861;28;20040;-76
2022/11/15 07:05:11;;;;;;;24.45;22.08;;;9.90;99.90;;;;;;4957946;28;20058;-75
2022/11/15 07:07:58;;;;;;;23.02;20.90;;;9.90;99.90;;;;;;4948672;28;20061;-76
2022/11/15 07:10:43;;;;;;;25.00;22.50;;;9.90;99.90;;;;;;4967289;28;20390;-76
2022/11/15 07:13:32;;;;;;;24.63;22.20;;;9.90;99.90;;;;;;4964314;28;20153;-76
2022/11/15 07:16:20;;;;;;;25.48;23.00;;;9.90;99.90;;;;;;4949832;28;20675;-75
2022/11/15 07:19:05;;;;;;;;;;;9.90;99.90;;;;;;4958009;28;20086;-76
2022/11/15 07:21:50;;;;;;;25.25;22.80;;;10.00;99.90;;;;;;4967618;28;20012;-75
2022/11/15 07:24:36;;;;;;;27.00;24.45;;;9.90;99.90;;;;;;4965227;28;20089;-76
2022/11/15 07:27:21;;;;;;;;;;;9.90;99.90;;;;;;4953216;28;20102;-76
2022/11/15 07:30:08;;;;;;;25.33;22.02;;;9.90;99.90;;;;;;4962330;28;19975;-76
2022/11/15 07:32:59;;;;;;;23.83;21.67;;;9.90;99.90;;;;;;4954510;28;20053;-76
2022/11/15 07:35:46;;;;;;;25.63;23.20;;;9.90;99.90;;;;;;4956135;28;20057;-76
2022/11/15 07:38:33;;;;;;;24.67;22.10;;;9.90;99.90;;;;;;4972616;28;20124;-76
2022/11/15 07:41:26;;;;;;;24.67;22.35;;;10.00;99.90;;;;;;4953934;28;20053;-76
2022/11/15 07:44:12;;;;;;;;;;;10.00;99.90;;;;;;4956721;28;20054;-75
2022/11/15 07:46:57;;;;;;;26.98;23.10;;;10.10;99.90;;;;;;4956239;28;19949;-76
2022/11/15 07:49:45;;;;;;;25.80;23.58;;;10.10;99.90;;;;;;4949232;28;22402;-76
2022/11/15 07:52:31;;;;;;;26.40;23.77;;;10.20;99.90;;;;;;4946026;28;20540;-75
2022/11/15 07:55:16;;;;;;;;;;;10.20;99.90;;;;;;4957531;28;20043;-75
2022/11/15 07:58:07;;;;;;;27.27;24.63;;;10.30;99.90;;;;;;4957496;28;20035;-76
2022/11/15 08:00:55;;;;;;;27.50;25.17;;;10.40;99.90;;;;;;4953112;28;21070;-75
2022/11/15 08:03:41;;;;;;;27.77;25.58;;;10.50;99.90;;;;;;4958217;28;20129;-75
2022/11/15 08:06:26;;;;;;;;;;;10.60;99.90;;;;;;4950011;28;20097;-76
2022/11/15 08:09:11;;;;;;;28.35;25.45;;;10.70;99.90;;;;;;4955206;28;19930;-75
2022/11/15 08:11:57;;;;;;;28.25;26.02;;;10.70;99.90;;;;;;4951109;28;20049;-75
2022/11/15 08:14:42;;;;;;;;;;;10.80;99.90;;;;;;4969276;28;20121;-75
2022/11/15 08:17:31;;;;;;;29.90;27.33;;;10.90;99.90;;;;;;4948272;28;20015;-76
2022/11/15 08:20:16;;;;;;;30.50;27.90;;;11.00;99.90;;;;;;4948744;28;20125;-76
2022/11/15 08:23:03;;;;;;;30.38;28.08;;;11.00;99.90;;;;;;4968150;28;20149;-75
2022/11/15 08:25:48;;;;;;;31.17;28.70;;;11.10;99.90;;;;;;4959218;28;20050;-75
2022/11/15 08:28:34;;;;;;;31.95;29.35;;;11.10;99.90;;;;;;4970770;28;20045;-76
2022/11/15 08:31:20;;;;;;;33.38;30.67;;;11.20;99.90;;;;;;4964977;28;20043;-76
2022/11/15 08:34:06;;;;;;;33.13;30.40;;;11.30;99.90;;;;;;4968337;28;20491;-76
2022/11/15 08:36:51;;;;;;;30.45;28.17;;;11.40;99.90;;;;;;4961026;28;20073;-76
2022/11/15 08:39:37;;;;;;;30.95;28.40;;;11.60;99.90;;;;;;4968838;28;20057;-75
2022/11/15 08:42:22;;;;;;;31.00;28.45;;;11.70;99.90;;;;;;4960407;28;20053;-76
2022/11/15 08:45:09;;;;;;;29.85;27.95;;;11.80;99.90;;;;;;4946494;28;20130;-75
2022/11/15 08:47:54;;;;;;;30.10;27.85;;;12.00;99.90;;;;;;4962432;28;20042;-75
2022/11/15 08:50:39;;;;;;;30.35;28.35;;;12.20;99.90;;;;;;4959872;28;20042;-76
2022/11/15 08:53:24;;;;;;;31.15;29.02;;;12.40;99.90;;;;;;4974596;28;20053;-76
2022/11/15 08:56:12;;;;;;;30.30;28.15;;;12.70;99.90;;;;;;4961300;28;20053;-76
2022/11/15 08:58:57;;;;;;;30.15;28.25;;;12.70;99.90;;;;;;4958910;28;20453;-76
2022/11/15 09:01:42;;;;;;;;;;;13.00;99.90;;;;;;4963143;28;20547;-76
2022/11/15 09:04:31;;;;;;;27.83;25.92;;;13.20;99.90;;;;;;4971970;28;20071;-76
2022/11/15 09:07:16;;;;;;;28.45;26.70;;;13.20;99.90;;;;;;4951935;28;20176;-76
2022/11/15 09:10:02;;;;;;;29.00;27.00;;;13.30;99.90;;;;;;4966923;28;20691;-75
2022/11/15 09:12:48;;;;;;;31.10;29.00;;;13.20;99.90;;;;;;4961330;28;20061;-77
2022/11/15 09:15:34;;;;;;;31.92;30.05;;;12.90;99.90;;;;;;4947943;28;20054;-76
2022/11/15 09:18:22;;;;;;;32.00;30.05;;;12.80;99.90;;;;;;4961169;28;20074;-75
2022/11/15 09:21:07;;;;;;;31.33;29.33;;;12.90;99.90;;;;;;4962170;28;20659;-76
2022/11/15 09:23:53;;;;;;;31.33;29.52;;;13.00;99.90;;;;;;4949904;28;20109;-76
2022/11/15 09:26:38;;;;;;;;;;;13.20;99.90;;;;;;4961316;28;20065;-76
2022/11/15 09:29:24;;;;;;;29.08;27.23;;;13.50;99.90;;;;;;4968595;28;20091;-76
2022/11/15 09:32:09;;;;;;;29.75;27.95;;;13.40;99.90;;;;;;4969197;28;20043;-76
2022/11/15 09:34:54;;;;;;;;;;;13.50;99.90;;;;;;4959479;28;20053;-76
2022/11/15 09:37:39;;;;;;;30.48;28.55;;;13.60;99.90;;;;;;4950175;28;19989;-76
2022/11/15 09:40:26;;;;;;;;;;;13.70;99.90;;;;;;4966953;28;20531;-75
2022/11/15 09:43:33;;;;;;;28.52;26.80;;;13.70;99.90;;;;;;4979839;28;20027;-76
2022/11/15 09:46:27;;;;;;;30.35;28.48;;;13.70;99.90;;;;;;4967996;28;20571;-76
2022/11/15 09:49:15;;;;;;;31.65;29.52;;;13.50;99.90;;;;;;4968232;28;20130;-75
2022/11/15 09:52:03;;;;;;;30.25;28.40;;;13.50;99.90;;;;;;4960504;28;20551;-75
2022/11/15 09:54:36;;;;;;;28.70;26.98;;;13.50;99.90;;;;;;4968781;28;20057;-75
2022/11/15 09:57:39;;;;;;;28.50;26.70;;;13.80;99.90;;;;;;4948676;28;20617;-76
2022/11/15 10:00:12;;;;;;;;;;;14.10;99.90;;;;;;4956223;28;20070;-75
2022/11/15 10:03:13;;;;;;;26.77;25.13;;;14.00;99.90;;;;;;4939554;28;19949;-76
2022/11/15 10:05:54;;;;;;;27.13;25.23;;;14.10;99.90;;;;;;4951891;28;20043;-75
2022/11/15 10:08:46;;;;;;;27.85;26.15;;;14.10;99.90;;;;;;4946150;28;20054;-76
2022/11/15 10:11:20;;;;;;;28.42;26.92;;;13.90;99.90;;;;;;4940646;28;20040;-76
2022/11/15 10:14:14;;;;;;;28.13;26.30;;;13.90;99.90;;;;;;4956087;28;20042;-76
2022/11/15 10:16:57;;;;;;;28.00;26.33;;;13.90;99.90;;;;;;4948390;28;20047;-75
2022/11/15 10:19:28;;;;;;;29.60;27.90;;;14.10;99.90;;;;;;4975630;28;20047;-76
2022/11/15 10:22:39;;;;;;;25.75;24.08;;;14.10;99.90;;;;;;4969588;28;20057;-76
2022/11/15 10:25:08;;;;;;;26.90;25.30;;;14.10;99.90;;;;;;4901150;29;20071;-76
2022/11/15 10:27:35;;;;;;;26.95;25.35;;;14.10;99.90;;;;;;4880839;29;20055;-75
2022/11/15 10:30:04;;;;;;;26.75;25.05;;;14.00;99.90;;;;;;4915407;28;20046;-75
2022/11/15 10:32:34;;;;;;;25.70;24.10;;;14.10;99.90;;;;;;4957692;28;20042;-76
2022/11/15 10:35:23;;;;;;;26.85;25.33;;;14.10;99.90;;;;;;4948880;28;20109;-75
2022/11/15 10:37:50;;;;;;;25.98;24.33;;;14.20;99.90;;;;;;4957272;28;20058;-75
2022/11/15 10:40:24;;;;;;;25.83;24.23;;;14.30;99.90;;;;;;4946691;28;20047;-76
2022/11/15 10:43:10;;;;;;;25.93;24.43;;;14.40;99.90;;;;;;4965202;28;20050;-75
2022/11/15 10:45:38;;;;;;;26.48;24.88;;;14.30;99.90;;;;;;4973762;28;20117;-75
2022/11/15 10:48:14;;;;;;;25.88;24.27;;;14.20;99.90;;;;;;4970722;28;20038;-75
2022/11/15 10:50:45;;;;;;;26.40;24.70;;;14.20;99.90;;;;;;4949640;28;20050;-75
2022/11/15 10:53:22;;;;;;;27.17;25.15;;;14.20;99.90;;;;;;4967958;28;20046;-75
2022/11/15 10:55:52;;;;;;;25.90;24.20;;;14.20;99.90;;;;;;4950559;28;20540;-75
2022/11/15 10:58:43;;;;;;;25.75;23.80;;;14.20;99.90;;;;;;4950145;28;20082;-75
2022/11/15 11:01:13;;;;;;;26.92;24.75;;;14.30;99.90;;;;;;4968544;28;20709;-76
2022/11/15 11:03:42;;;;;;;25.42;23.92;;;14.40;99.90;;;;;;4966014;28;20409;-75
2022/11/15 11:06:16;;;;;;;25.35;23.83;;;14.40;99.90;;;;;;4933260;28;20204;-75
2022/11/15 11:08:59;;;;;;;25.03;23.27;;;14.30;99.90;;;;;;4945451;28;20051;-75
2022/11/15 11:11:48;;;;;;;25.33;23.70;;;14.30;99.90;;;;;;4963557;28;20325;-75
2022/11/15 11:14:27;;;;;;;25.25;23.75;;;14.20;99.90;;;;;;4941551;28;20071;-74
2022/11/15 11:17:09;;;;;;;26.30;24.60;;;14.10;99.90;;;;;;4962420;28;20582;-75
2022/11/15 11:19:39;;;;;;;25.08;23.45;;;14.10;99.90;;;;;;4924136;28;20065;-75
2022/11/15 11:22:18;;;;;;;26.77;25.23;;;14.10;99.90;;;;;;4956381;28;20043;-75
2022/11/15 11:24:58;;;;;;;26.02;24.52;;;14.20;99.90;;;;;;4948075;28;20062;-74
2022/11/15 11:27:43;;;;;;;26.85;25.13;;;14.20;99.90;;;;;;4940698;28;20038;-75
2022/11/15 11:30:48;;;;;;;26.33;24.67;;;14.10;99.90;;;;;;4942423;28;20055;-75
2022/11/15 11:33:17;;;;;;;27.42;25.63;;;13.90;99.90;;;;;;4958058;28;20046;-75
2022/11/15 11:36:03;;;;;;;27.65;25.95;;;13.70;99.90;;;;;;4955750;28;20136;-74
2022/11/15 11:38:33;;;;;;;26.88;25.30;;;13.70;99.90;;;;;;4971090;28;20042;-74
2022/11/15 11:41:07;;;;;;;26.50;24.98;;;13.60;99.90;;;;;;4949823;28;20053;-75
2022/11/15 11:43:56;;;;;;;25.88;24.48;;;13.60;99.90;;;;;;4955285;28;20053;-74
2022/11/15 11:46:45;;;;;;;27.90;26.15;;;13.50;99.90;;;;;;4964851;28;20090;-74
2022/11/15 11:49:40;;;;;;;27.25;25.65;;;13.50;99.90;;;;;;4970336;28;20613;-75
2022/11/15 11:52:34;;;;;;;26.30;24.77;;;13.50;99.90;;;;;;4926740;28;20057;-75
2022/11/15 11:55:51;;;;;;;26.90;25.30;;;13.70;99.90;;;;;;4944090;28;20453;-75
2022/11/15 11:58:44;;;;;;;26.67;25.02;;;13.90;99.90;;;;;;4927672;28;20061;-75
2022/11/15 12:01:16;;;;;;;26.92;25.33;;;13.70;99.90;;;;;;4953494;28;20132;-75
2022/11/15 12:04:15;;;;;;;27.73;25.95;;;13.70;99.90;;;;;;4949650;28;20047;-75
2022/11/15 12:07:08;;;;;;;26.58;25.13;;;13.60;99.90;;;;;;4944572;28;20662;-75
2022/11/15 12:10:02;;;;;;;27.08;25.33;;;13.60;99.90;;;;;;4946979;28;20051;-75
2022/11/15 12:12:47;;;;;;;26.60;25.08;;;13.50;99.90;;;;;;4958686;28;20258;-75
2022/11/15 12:15:21;;;;;;;27.92;26.08;;;13.40;99.90;;;;;;4946045;28;20043;-75
2022/11/15 12:17:49;;;;;;;28.30;26.52;;;13.30;99.90;;;;;;4951958;28;20505;-74
2022/11/15 12:20:19;;;;;;;26.02;24.52;;;13.50;99.90;;;;;;4975903;28;20042;-75
2022/11/15 12:23:17;;;;;;;27.40;25.90;;;13.60;99.90;;;;;;4967348;28;20563;-75
2022/11/15 12:25:51;;;;;;;26.52;24.85;;;13.50;99.90;;;;;;4971176;28;20309;-74
2022/11/15 12:28:45;;;;;;;27.73;26.15;;;13.40;99.90;;;;;;4957599;28;20709;-74
2022/11/15 12:31:43;;;;;;;26.42;24.92;;;13.40;99.90;;;;;;4975747;28;20079;-74
2022/11/15 12:34:22;;;;;;;27.40;25.90;;;13.50;99.90;;;;;;4949076;28;20046;-75
2022/11/15 12:36:50;;;;;;;25.60;24.10;;;13.70;99.90;;;;;;4965394;28;20058;-75
2022/11/15 12:39:18;;;;;;;26.08;24.48;;;13.70;99.90;;;;;;4953841;28;20043;-75
2022/11/15 12:42:05;;;;;;;25.83;24.23;;;13.70;99.90;;;;;;4974720;28;20049;-75
2022/11/15 12:44:37;;;;;;;26.65;24.73;;;13.70;99.90;;;;;;4955781;28;20050;-76
2022/11/15 12:47:25;;;;;;;25.20;23.48;;;13.70;99.90;;;;;;4968815;28;20844;-76
2022/11/15 12:49:53;;;;;;;24.55;23.00;;;13.80;99.90;;;;;;4956999;28;20058;-76
2022/11/15 12:52:19;;;;;;;25.70;24.10;;;13.80;99.90;;;;;;4947135;28;20130;-76
2022/11/15 12:54:55;;;;;;;26.58;25.08;;;13.70;99.90;;;;;;4948621;28;21038;-76
2022/11/15 12:57:32;;;;;;;25.95;24.38;;;13.80;99.90;;;;;;4967597;28;20049;-76
2022/11/15 13:00:14;;;;;;;25.35;23.70;;;14.00;99.90;;;;;;4971695;28;20050;-76
2022/11/15 13:02:45;;;;;;;24.95;23.25;;;14.10;99.90;;;;;;4976038;28;20046;-75
2022/11/15 13:05:15;;;;;;;24.45;22.92;;;14.00;99.90;;;;;;4954040;28;20069;-76
2022/11/15 13:07:41;;;;;;;25.25;23.63;;;14.00;99.90;;;;;;4970933;28;20046;-76
2022/11/15 13:10:30;;;;;;;25.17;23.55;;;14.00;99.90;;;;;;4957983;28;20100;-77
2022/11/15 13:13:03;;;;;;;25.05;23.45;;;14.10;99.90;;;;;;4960111;28;20046;-76
2022/11/15 13:15:34;;;;;;;23.80;22.45;;;14.10;99.90;;;;;;4946701;28;20066;-76
2022/11/15 13:18:26;;;;;;;23.25;21.95;;;14.10;99.90;;;;;;4976195;28;20112;-76
2022/11/15 13:20:53;;;;;;;24.40;23.00;;;14.10;99.90;;;;;;4943514;28;20378;-76
2022/11/15 13:23:27;;;;;;;25.23;23.73;;;14.10;99.90;;;;;;4968341;28;20578;-76
2022/11/15 13:26:16;;;;;;;23.85;22.45;;;14.00;99.90;;;;;;4980721;28;20046;-76
2022/11/15 13:28:52;;;;;;;23.50;22.23;;;13.80;99.90;;;;;;4943912;28;20053;-76
2022/11/15 13:31:43;;;;;;;23.83;22.42;;;13.70;99.90;;;;;;4956407;28;20512;-76
2022/11/15 13:34:27;;;;;;;24.40;23.10;;;13.70;99.90;;;;;;4972871;28;20049;-76
2022/11/15 13:37:19;;;;;;;24.25;22.75;;;13.70;99.90;;;;;;4950940;28;20034;-76
2022/11/15 13:39:48;;;;;;;23.88;22.48;;;13.80;99.90;;;;;;4972886;28;21460;-76
2022/11/15 13:42:16;;;;;;;22.38;21.10;;;13.90;99.90;;;;;;4948345;28;20453;-76
2022/11/15 13:45:02;;;;;;;23.02;21.45;;;13.80;99.90;;;;;;4952133;28;20429;-76
2022/11/15 13:47:30;;;;;;;22.80;21.50;;;13.60;99.90;;;;;;4945806;28;20040;-76
2022/11/15 13:49:57;;;;;;;22.73;21.35;;;13.60;99.90;;;;;;4964529;28;20047;-76
2022/11/15 13:52:31;;;;;;;23.25;21.85;;;13.60;99.90;;;;;;4967616;28;20155;-76
2022/11/15 13:55:03;;;;;;;23.70;22.40;;;13.60;99.90;;;;;;4954076;28;20042;-76
2022/11/15 13:57:41;;;;;;;22.85;21.50;;;13.60;99.90;;;;;;4945506;28;20093;-76
2022/11/15 14:00:31;;;;;;;23.90;22.30;;;13.50;99.90;;;;;;4955090;28;20591;-76
2022/11/15 14:03:28;;;;;;;24.88;23.08;;;13.50;99.90;;;;;;4918125;28;20162;-76
2022/11/15 14:06:13;;;;;;;23.45;21.90;;;13.50;99.90;;;;;;4950479;28;20034;-77
2022/11/15 14:08:41;;;;;;;24.80;22.70;;;13.50;99.90;;;;;;4952952;28;20042;-76
2022/11/15 14:11:19;;;;;;;24.88;23.05;;;13.50;99.90;;;;;;4949319;28;20069;-77
2022/11/15 14:14:07;;;;;;;24.10;22.55;;;13.50;99.90;;;;;;4957739;28;21530;-76
2022/11/15 14:16:40;;;;;;;23.77;22.45;;;13.60;99.90;;;;;;4943504;28;20059;-77
2022/11/15 14:19:11;;;;;;;24.30;23.00;;;13.60;99.90;;;;;;4946675;28;20062;-77
2022/11/15 14:22:08;;;;;;;24.50;22.92;;;13.60;99.90;;;;;;4946454;28;20071;-76
2022/11/15 14:24:36;;;;;;;24.52;23.13;;;13.70;99.90;;;;;;4950307;28;20049;-76